Airfield :
LOGIN :

Register | Disclaimer

   EN    FR    IT 

 










Legend :    VFR   Marginal VFR   IFR   Intensive IFR   Very Intensive IFR
Visi :
Ceiling :
>= 8 km
>= 3000ft
5 to 8 km
1000 to 3000 ft
1500m to 5 km
500 to 1000 ft
800 to 1500m
200 to 500 ft
< 800m
< 200 ft
Symbols :   Thunderstorms  Fog  Heavy snow  Heavy precipitations  Wind > 20 kt
SIGMETs :     Misc.  Thunderstorms  Icing  Turbulence  Mountain Waves  Volcanic Ashes






- Airport Elevation : 285 ft
- IATA code : GOZ


LBGO - Gorna Oryahovitsa

CURRENT METAR :
  • 021300Z AUTO 27012KT 9999 FEW060 06/00 Q1016 NOSIG

EXPIRED METARs :
  • 021230Z AUTO 27012KT 9999 OVC052 06/00 Q1017 NOSIG
  • 021200Z AUTO 28011KT 9999 OVC052 06/00 Q1017 NOSIG
  • 021130Z AUTO 28010KT 9999 OVC038 06/M00 Q1017 NOSIG
  • 021100Z AUTO 28011KT 9999 BKN050 06/M00 Q1017 NOSIG
  • 021030Z AUTO 27010KT 9999 FEW036 BKN050 05/M00 Q1017 NOSIG

TAF TAF LBGO
Valid from the 02 at 12:00 until the 03 at 12:00 UTC


021100Z 0212/0312 28010KT 9999 SCT030 OVC060
BECMG 0216/0218 VRB04KT
TEMPO 0301/0306 3000 BR
BECMG 0307/0309 10010KT



MET'MAP, your aeronautical weather chart ! - Copyright ORBIFLY December 2007 - Disclaimer

ORBIFLY MET'MAP TEAM :

Programming & Development : Alexandra Zaïnal
Concept & original design : Baudouin d'Aumeries
Assistance for programming : Marc-Olivier Méhu
Technical & hardware support : Manuel Goepfert

Contact : metmap@orbifly.com




SOURCES & CREDITS :

   NOAA